createdAt,value
2022-08-27T00:04:43.551Z,8.30
2022-08-27T00:09:48.247Z,9.60
2022-08-27T00:14:51.889Z,10.80
2022-08-27T00:30:03.003Z,9.23
2022-08-27T02:57:10.801Z,9.88
2022-08-27T03:02:14.785Z,10.63
2022-08-27T03:07:19.035Z,11.05
2022-08-27T03:12:24.888Z,9.02
2022-08-27T03:17:45.617Z,10.07
2022-08-27T03:22:49.250Z,12.03
2022-08-27T03:27:54.066Z,10.60
2022-08-27T03:32:57.461Z,11.48
2022-08-27T03:38:00.781Z,10.32
2022-08-27T03:43:05.760Z,13.25
2022-08-27T03:48:09.213Z,10.97
2022-08-27T03:53:12.847Z,12.97
2022-08-27T03:58:18.065Z,12.55
2022-08-27T04:03:21.483Z,10.83
2022-08-27T04:08:25.410Z,10.20
2022-08-27T04:13:30.164Z,11.88
2022-08-27T04:18:33.525Z,12.60
2022-08-27T04:23:37.006Z,10.57
2022-08-27T04:28:41.731Z,13.07
2022-08-27T04:33:50.866Z,9.70
2022-08-27T04:38:54.466Z,9.50
2022-08-27T04:44:03.829Z,9.82
2022-08-27T04:49:10.546Z,9.55
2022-08-27T04:54:14.377Z,10.15
2022-08-27T04:59:19.085Z,9.27
2022-08-27T05:04:22.504Z,8.77
2022-08-27T05:09:29.959Z,8.73
2022-08-27T05:14:34.688Z,8.83
2022-08-27T05:19:39.136Z,8.25
2022-08-27T05:24:44.244Z,9.65
2022-08-27T05:29:51.770Z,7.40
2022-08-27T05:34:55.118Z,9.57
2022-08-27T05:39:58.492Z,9.45
2022-08-27T05:45:03.241Z,7.55
2022-08-27T05:50:07.448Z,7.82
2022-08-27T05:55:11.052Z,8.85
2022-08-27T06:00:33.825Z,7.80
2022-08-27T06:05:37.222Z,10.05
2022-08-27T06:10:42.741Z,8.60
2022-08-27T06:15:47.524Z,9.38
2022-08-27T06:20:50.901Z,9.10
2022-08-27T06:25:54.677Z,9.13
2022-08-27T06:31:05.876Z,9.60
2022-08-27T06:36:11.787Z,9.75
2022-08-27T06:41:23.399Z,7.93
2022-08-27T06:46:30.946Z,10.20
2022-08-27T06:51:37.153Z,9.80
2022-08-27T06:56:41.588Z,9.40
2022-08-27T07:01:51.445Z,9.30
2022-08-27T07:06:54.961Z,10.47
2022-08-27T07:11:58.795Z,9.45
2022-08-27T07:17:03.507Z,7.23
2022-08-27T07:22:07.266Z,6.47
2022-08-27T07:27:10.740Z,8.70
2022-08-27T07:32:15.813Z,8.40
2022-08-27T07:37:19.169Z,7.25
2022-08-27T07:42:39.860Z,7.90
2022-08-27T07:47:44.942Z,7.57
2022-08-27T07:52:48.283Z,8.65
2022-08-27T07:57:52.713Z,7.80
2022-08-27T08:02:57.631Z,6.83
2022-08-27T08:08:02.305Z,6.95
2022-08-27T08:13:06.002Z,6.10
2022-08-27T08:18:10.903Z,6.43
2022-08-27T08:23:14.396Z,5.68
2022-08-27T08:28:17.713Z,6.63
2022-08-27T08:33:22.880Z,6.88
2022-08-27T08:38:26.811Z,7.03
2022-08-27T08:43:35.802Z,6.63
2022-08-27T08:48:43.744Z,6.10
2022-08-27T08:53:53.112Z,6.57
2022-08-27T08:59:03.444Z,6.28
2022-08-27T09:04:12.786Z,4.72
2022-08-27T09:09:28.699Z,6.70
2022-08-27T09:14:37.991Z,5.55
2022-08-27T09:19:43.801Z,7.90
2022-08-27T09:24:54.422Z,6.00
2022-08-27T09:29:58.569Z,6.20
2022-08-27T09:35:06.949Z,8.53
2022-08-27T09:40:23.017Z,8.18
2022-08-27T09:45:29.890Z,7.63
2022-08-27T09:50:43.429Z,7.10
2022-08-27T09:55:49.629Z,7.50
2022-08-27T10:01:01.927Z,8.63
2022-08-27T10:06:07.504Z,7.77
2022-08-27T10:11:15.618Z,7.20
2022-08-27T10:16:47.411Z,7.30
2022-08-27T10:21:58.283Z,8.90
2022-08-27T10:27:11.634Z,7.25
2022-08-27T10:32:33.547Z,8.25
2022-08-27T10:37:50.407Z,7.50
2022-08-27T10:43:03.564Z,9.02
2022-08-27T10:48:17.617Z,9.80
2022-08-27T10:53:30.774Z,9.27
2022-08-27T10:58:47.325Z,6.50
2022-08-27T11:03:55.997Z,7.25
2022-08-27T11:09:07.553Z,4.22
2022-08-27T11:14:23.335Z,3.10
2022-08-27T11:19:31.553Z,2.88
2022-08-27T11:24:44.083Z,2.83
2022-08-27T11:30:00.090Z,6.13
2022-08-27T11:35:07.959Z,4.13
2022-08-27T11:40:51.704Z,4.27
2022-08-27T11:45:58.705Z,2.60
2022-08-27T11:51:04.536Z,4.20
2022-08-27T11:56:21.297Z,4.97
2022-08-27T12:01:33.162Z,4.72
2022-08-27T12:06:44.817Z,6.07
2022-08-27T12:12:01.818Z,5.28
2022-08-27T12:17:13.656Z,4.95
2022-08-27T12:22:58.599Z,4.18
2022-08-27T12:28:07.103Z,3.20
2022-08-27T12:33:20.636Z,3.60
2022-08-27T12:38:42.730Z,3.77
2022-08-27T12:43:51.252Z,2.40
2022-08-27T12:48:59.294Z,3.35
2022-08-27T12:54:31.227Z,4.18
2022-08-27T12:59:55.107Z,4.78
2022-08-27T13:05:04.468Z,5.47
2022-08-27T13:10:16.365Z,6.15
2022-08-27T13:15:22.145Z,6.72
2022-08-27T13:20:28.051Z,5.73
2022-08-27T13:25:34.788Z,6.40
2022-08-27T13:30:44.325Z,5.10
2022-08-27T13:35:49.015Z,6.30
2022-08-27T13:40:57.947Z,5.05
2022-08-27T13:46:07.594Z,5.50
2022-08-27T13:51:13.315Z,6.05
2022-08-27T13:56:30.185Z,5.72
2022-08-27T14:01:35.388Z,5.07
2022-08-27T14:06:44.454Z,4.90
2022-08-27T14:11:49.822Z,5.97
2022-08-27T14:17:01.060Z,5.35
2022-08-27T14:22:05.649Z,6.80
2022-08-27T14:27:13.932Z,5.00
2022-08-27T14:32:21.390Z,5.27
2022-08-27T14:37:25.660Z,4.68
2022-08-27T14:42:29.368Z,5.35
2022-08-27T14:47:34.354Z,5.05
2022-08-27T14:52:39.563Z,4.43
2022-08-27T14:57:52.489Z,5.18
2022-08-27T15:02:58.048Z,3.55
2022-08-27T15:08:01.436Z,3.05
2022-08-27T15:13:05.373Z,3.07
2022-08-27T15:18:10.757Z,3.17
2022-08-27T15:23:15.672Z,3.42
2022-08-27T15:28:19.185Z,4.35
2022-08-27T15:33:24.696Z,4.32
2022-08-27T15:38:28.278Z,4.60
2022-08-27T15:43:31.724Z,3.75
2022-08-27T15:48:36.600Z,3.80
2022-08-27T15:53:41.686Z,3.70
2022-08-27T15:58:45.048Z,3.63
2022-08-27T16:03:50.177Z,4.18
2022-08-27T16:08:54.292Z,3.10
2022-08-27T16:13:57.632Z,2.88
2022-08-27T16:19:04.032Z,2.80
2022-08-27T16:24:09.502Z,3.00
2022-08-27T16:29:14.340Z,3.38
2022-08-27T16:34:22.926Z,3.80
2022-08-27T16:39:30.445Z,3.85
2022-08-27T16:44:36.598Z,3.50
2022-08-27T16:49:58.437Z,3.90
2022-08-27T16:55:01.767Z,3.43
2022-08-27T17:00:06.433Z,5.07
2022-08-27T17:05:33.610Z,4.25
2022-08-27T17:10:40.838Z,5.53
2022-08-27T17:15:44.828Z,4.43
2022-08-27T17:20:49.834Z,3.72
2022-08-27T17:25:53.270Z,3.50
2022-08-27T17:30:57.607Z,4.30
2022-08-27T17:36:02.376Z,4.25
2022-08-27T17:41:13.099Z,4.93
2022-08-27T17:46:16.697Z,3.70
2022-08-27T17:51:22.867Z,3.30
2022-08-27T17:56:26.555Z,3.38
2022-08-27T18:01:33.287Z,3.40
2022-08-27T18:06:38.298Z,3.60
2022-08-27T18:11:41.825Z,3.05
2022-08-27T18:16:45.203Z,3.90
2022-08-27T18:21:50.029Z,3.03
2022-08-27T18:26:53.530Z,3.28
2022-08-27T18:31:57.394Z,2.95
2022-08-27T18:37:02.215Z,3.42
2022-08-27T18:42:06.884Z,2.63
2022-08-27T18:47:10.246Z,3.15
2022-08-27T18:52:15.268Z,3.85
2022-08-27T18:57:18.730Z,2.90
2022-08-27T19:02:22.765Z,3.30
2022-08-27T19:07:29.715Z,3.83
2022-08-27T19:12:33.187Z,3.55
2022-08-27T19:17:37.693Z,4.43
2022-08-27T19:22:42.450Z,4.07
2022-08-27T19:27:47.340Z,4.27
2022-08-27T19:32:54.796Z,3.97
2022-08-27T19:38:02.030Z,3.90
2022-08-27T19:43:07.175Z,3.58
2022-08-27T19:48:12.631Z,3.92
2022-08-27T19:53:18.318Z,4.63
2022-08-27T19:58:21.980Z,3.83
2022-08-27T20:03:25.948Z,3.53
2022-08-27T20:08:30.861Z,4.43
2022-08-27T20:13:34.720Z,3.40
2022-08-27T20:18:38.168Z,3.97
2022-08-27T20:23:43.664Z,3.40
2022-08-27T20:28:47.437Z,3.47
2022-08-27T20:33:51.189Z,4.03
2022-08-27T20:38:56.229Z,3.83
2022-08-27T20:43:59.543Z,3.90
2022-08-27T20:49:04.547Z,4.37
2022-08-27T20:54:09.298Z,4.28
2022-08-27T20:59:30.385Z,4.83
2022-08-27T21:04:38.850Z,4.32
2022-08-27T21:09:56.419Z,4.40
2022-08-27T21:15:02.446Z,5.03
2022-08-27T21:20:07.740Z,4.60
2022-08-27T21:25:14.372Z,4.90
2022-08-27T21:30:18.039Z,5.47
2022-08-27T21:35:21.361Z,6.10
2022-08-27T21:40:28.141Z,6.97
2022-08-27T21:45:31.946Z,7.40
2022-08-27T21:50:35.362Z,6.30
2022-08-27T21:55:40.652Z,8.20
2022-08-27T22:00:45.953Z,7.82
2022-08-27T22:05:49.562Z,9.00
2022-08-27T22:10:57.981Z,7.40
2022-08-27T22:16:01.653Z,7.10
2022-08-27T22:21:06.237Z,6.07
2022-08-27T22:26:11.009Z,6.67
2022-08-27T22:31:14.411Z,6.30
2022-08-27T22:36:17.775Z,7.10
2022-08-27T22:41:22.639Z,6.57
2022-08-27T22:46:26.972Z,6.85
2022-08-27T22:51:30.344Z,6.90
2022-08-27T22:56:35.092Z,8.23
2022-08-27T23:01:39.444Z,7.63
2022-08-27T23:06:42.815Z,8.35
2022-08-27T23:11:47.540Z,7.70
2022-08-27T23:16:50.952Z,7.25
2022-08-27T23:21:54.591Z,8.80
2022-08-27T23:27:16.703Z,9.32
2022-08-27T23:32:20.047Z,8.77
2022-08-27T23:37:24.008Z,8.87
2022-08-27T23:42:29.021Z,9.70
2022-08-27T23:47:32.415Z,8.80
2022-08-27T23:52:36.058Z,8.18
2022-08-27T23:57:41.133Z,8.07
